sensor_id;sensor_type;location;lat;lon;timestamp;pressure;altitude;pressure_sealevel;temperature;humidity
74573;BME280;73017;50.810;4.428;2024-02-14T00:00:10;100872.75;;;21.17;46.68
74573;BME280;73017;50.810;4.428;2024-02-14T00:02:40;100884.00;;;21.30;46.16
74573;BME280;73017;50.810;4.428;2024-02-14T00:05:07;100896.22;;;21.35;46.04
74573;BME280;73017;50.810;4.428;2024-02-14T00:07:32;100899.53;;;21.28;45.87
74573;BME280;73017;50.810;4.428;2024-02-14T00:09:58;100878.00;;;21.14;46.11
74573;BME280;73017;50.810;4.428;2024-02-14T00:12:23;100896.59;;;21.33;45.72
74573;BME280;73017;50.810;4.428;2024-02-14T00:14:50;100875.19;;;21.26;45.75
74573;BME280;73017;50.810;4.428;2024-02-14T00:17:15;100851.84;;;21.16;46.34
74573;BME280;73017;50.810;4.428;2024-02-14T00:19:41;100870.84;;;21.37;46.12
74573;BME280;73017;50.810;4.428;2024-02-14T00:22:06;100871.19;;;21.36;46.35
74573;BME280;73017;50.810;4.428;2024-02-14T00:24:32;100859.13;;;21.19;45.80
74573;BME280;73017;50.810;4.428;2024-02-14T00:26:57;100867.97;;;21.27;45.56
74573;BME280;73017;50.810;4.428;2024-02-14T00:29:23;100881.41;;;21.34;46.28
74573;BME280;73017;50.810;4.428;2024-02-14T00:31:51;100853.38;;;21.17;46.46
74573;BME280;73017;50.810;4.428;2024-02-14T00:34:17;100862.19;;;21.21;46.02
74573;BME280;73017;50.810;4.428;2024-02-14T00:36:42;100873.84;;;21.36;45.78
74573;BME280;73017;50.810;4.428;2024-02-14T00:39:08;100871.53;;;21.34;45.48
74573;BME280;73017;50.810;4.428;2024-02-14T00:41:35;100879.50;;;21.34;45.53
74573;BME280;73017;50.810;4.428;2024-02-14T00:44:04;100875.72;;;21.35;45.83
74573;BME280;73017;50.810;4.428;2024-02-14T00:46:30;100887.06;;;21.32;46.03
74573;BME280;73017;50.810;4.428;2024-02-14T00:48:56;100889.31;;;21.30;45.96
74573;BME280;73017;50.810;4.428;2024-02-14T00:51:22;100889.66;;;21.29;46.02
74573;BME280;73017;50.810;4.428;2024-02-14T00:53:47;100911.00;;;21.32;45.29
74573;BME280;73017;50.810;4.428;2024-02-14T00:56:13;100879.59;;;21.18;45.57
74573;BME280;73017;50.810;4.428;2024-02-14T00:58:38;100907.56;;;21.32;45.29
74573;BME280;73017;50.810;4.428;2024-02-14T01:01:04;100889.81;;;21.16;45.79
74573;BME280;73017;50.810;4.428;2024-02-14T01:03:30;100906.75;;;21.28;46.08
74573;BME280;73017;50.810;4.428;2024-02-14T01:05:56;100919.31;;;21.31;45.92
74573;BME280;73017;50.810;4.428;2024-02-14T01:08:21;100904.56;;;21.14;45.60
74573;BME280;73017;50.810;4.428;2024-02-14T01:10:47;100905.75;;;21.16;45.30
74573;BME280;73017;50.810;4.428;2024-02-14T01:13:16;100926.94;;;21.32;45.46
74573;BME280;73017;50.810;4.428;2024-02-14T01:15:42;100900.44;;;21.16;45.90
74573;BME280;73017;50.810;4.428;2024-02-14T01:18:08;100911.50;;;21.18;45.69
74573;BME280;73017;50.810;4.428;2024-02-14T01:20:33;100901.50;;;21.12;45.67
74573;BME280;73017;50.810;4.428;2024-02-14T01:22:59;100911.50;;;21.18;45.32
74573;BME280;73017;50.810;4.428;2024-02-14T01:25:26;100912.97;;;21.16;45.74
74573;BME280;73017;50.810;4.428;2024-02-14T01:27:51;100933.09;;;21.36;45.04
74573;BME280;73017;50.810;4.428;2024-02-14T01:30:18;100939.53;;;21.35;45.48
74573;BME280;73017;50.810;4.428;2024-02-14T01:32:43;100945.97;;;21.34;45.84
74573;BME280;73017;50.810;4.428;2024-02-14T01:35:09;100923.34;;;21.21;45.51
74573;BME280;73017;50.810;4.428;2024-02-14T01:37:35;100927.50;;;21.22;45.12
74573;BME280;73017;50.810;4.428;2024-02-14T01:40:00;100947.53;;;21.35;45.69
74573;BME280;73017;50.810;4.428;2024-02-14T01:42:26;100913.72;;;21.16;45.47
74573;BME280;73017;50.810;4.428;2024-02-14T01:44:53;100944.06;;;21.35;45.33
74573;BME280;73017;50.810;4.428;2024-02-14T01:47:20;100938.34;;;21.33;45.59
74573;BME280;73017;50.810;4.428;2024-02-14T01:49:48;100941.78;;;21.33;45.68
74573;BME280;73017;50.810;4.428;2024-02-14T01:52:14;100938.28;;;21.29;45.47
74573;BME280;73017;50.810;4.428;2024-02-14T01:54:40;100942.13;;;21.32;45.17
74573;BME280;73017;50.810;4.428;2024-02-14T01:57:08;100942.91;;;21.32;44.93
74573;BME280;73017;50.810;4.428;2024-02-14T01:59:34;100945.91;;;21.31;45.35
74573;BME280;73017;50.810;4.428;2024-02-14T02:02:00;100933.75;;;21.30;45.54
74573;BME280;73017;50.810;4.428;2024-02-14T02:04:26;100932.97;;;21.29;45.15
74573;BME280;73017;50.810;4.428;2024-02-14T02:06:52;100934.84;;;21.29;45.42
74573;BME280;73017;50.810;4.428;2024-02-14T02:09:22;100905.28;;;21.11;45.60
74573;BME280;73017;50.810;4.428;2024-02-14T02:11:49;100909.06;;;21.10;45.21
74573;BME280;73017;50.810;4.428;2024-02-14T02:14:16;100924.94;;;21.26;45.09
74573;BME280;73017;50.810;4.428;2024-02-14T02:16:42;100923.34;;;21.21;45.61
74573;BME280;73017;50.810;4.428;2024-02-14T02:19:08;100921.44;;;21.21;45.27
74573;BME280;73017;50.810;4.428;2024-02-14T02:21:38;100921.44;;;21.21;45.72
74573;BME280;73017;50.810;4.428;2024-02-14T02:24:03;100914.97;;;21.23;45.87
74573;BME280;73017;50.810;4.428;2024-02-14T02:26:29;100922.53;;;21.20;45.97
74573;BME280;73017;50.810;4.428;2024-02-14T02:28:55;100918.72;;;21.18;45.68
74573;BME280;73017;50.810;4.428;2024-02-14T02:31:21;100897.53;;;21.02;45.36
74573;BME280;73017;50.810;4.428;2024-02-14T02:33:46;100928.16;;;21.15;45.91
74573;BME280;73017;50.810;4.428;2024-02-14T02:36:12;100932.34;;;21.16;45.36
74573;BME280;73017;50.810;4.428;2024-02-14T02:38:38;100938.03;;;21.15;45.67
74573;BME280;73017;50.810;4.428;2024-02-14T02:41:05;100935.72;;;21.13;45.57
74573;BME280;73017;50.810;4.428;2024-02-14T02:43:34;100907.38;;;21.01;45.35
74573;BME280;73017;50.810;4.428;2024-02-14T02:46:00;100910.31;;;20.96;46.02
74573;BME280;73017;50.810;4.428;2024-02-14T02:48:25;100910.31;;;20.96;45.98
74573;BME280;73017;50.810;4.428;2024-02-14T02:50:51;100929.22;;;21.11;45.51
74573;BME280;73017;50.810;4.428;2024-02-14T02:53:18;100924.09;;;21.02;45.87
74573;BME280;73017;50.810;4.428;2024-02-14T02:55:44;100912.97;;;20.96;45.45
74573;BME280;73017;50.810;4.428;2024-02-14T02:58:10;100912.97;;;20.96;45.67
74573;BME280;73017;50.810;4.428;2024-02-14T03:00:36;100932.97;;;21.10;46.28
74573;BME280;73017;50.810;4.428;2024-02-14T03:03:01;100934.47;;;21.07;46.33
74573;BME280;73017;50.810;4.428;2024-02-14T03:05:30;100906.47;;;20.94;46.04
74573;BME280;73017;50.810;4.428;2024-02-14T03:07:57;100910.53;;;20.88;45.71
74573;BME280;73017;50.810;4.428;2024-02-14T03:10:23;100939.00;;;21.07;45.73
74573;BME280;73017;50.810;4.428;2024-02-14T03:12:50;100922.84;;;20.96;46.11
74573;BME280;73017;50.810;4.428;2024-02-14T03:15:17;100928.44;;;20.91;45.97
74573;BME280;73017;50.810;4.428;2024-02-14T03:17:44;100926.47;;;20.88;45.58
74573;BME280;73017;50.810;4.428;2024-02-14T03:20:11;100951.50;;;21.06;45.84
74573;BME280;73017;50.810;4.428;2024-02-14T03:22:42;100945.44;;;21.06;45.59
74573;BME280;73017;50.810;4.428;2024-02-14T03:25:17;100923.06;;;20.87;46.04
74573;BME280;73017;50.810;4.428;2024-02-14T03:27:43;100942.28;;;21.00;45.93
74573;BME280;73017;50.810;4.428;2024-02-14T03:30:12;100948.81;;;21.03;45.73
74573;BME280;73017;50.810;4.428;2024-02-14T03:32:38;100923.47;;;20.89;46.03
74573;BME280;73017;50.810;4.428;2024-02-14T03:35:04;100956.06;;;21.06;45.75
74573;BME280;73017;50.810;4.428;2024-02-14T03:37:30;100950.31;;;21.04;46.17
74573;BME280;73017;50.810;4.428;2024-02-14T03:39:55;100926.81;;;20.86;45.88
74573;BME280;73017;50.810;4.428;2024-02-14T03:42:21;100940.50;;;20.88;45.33
74573;BME280;73017;50.810;4.428;2024-02-14T03:44:46;100954.88;;;21.03;45.80
74573;BME280;73017;50.810;4.428;2024-02-14T03:47:12;100950.25;;;21.00;46.08
74573;BME280;73017;50.810;4.428;2024-02-14T03:49:39;100942.19;;;20.96;45.90
74573;BME280;73017;50.810;4.428;2024-02-14T03:52:06;100932.63;;;20.92;45.61
74573;BME280;73017;50.810;4.428;2024-02-14T03:54:37;100938.28;;;20.90;45.77
74573;BME280;73017;50.810;4.428;2024-02-14T03:57:03;100951.88;;;21.05;45.85
74573;BME280;73017;50.810;4.428;2024-02-14T03:59:36;100954.97;;;21.07;45.68
74573;BME280;73017;50.810;4.428;2024-02-14T04:02:01;100926.88;;;20.90;45.68
74573;BME280;73017;50.810;4.428;2024-02-14T04:04:27;100934.84;;;20.90;45.61
74573;BME280;73017;50.810;4.428;2024-02-14T04:06:52;100942.16;;;20.93;45.66
74573;BME280;73017;50.810;4.428;2024-02-14T04:09:18;100947.03;;;20.91;45.68
74573;BME280;73017;50.810;4.428;2024-02-14T04:11:43;100943.59;;;20.90;45.48
74573;BME280;73017;50.810;4.428;2024-02-14T04:14:08;100953.53;;;20.93;45.53
74573;BME280;73017;50.810;4.428;2024-02-14T04:16:34;100972.16;;;21.13;45.50
74573;BME280;73017;50.810;4.428;2024-02-14T04:19:02;100971.03;;;21.14;45.73
74573;BME280;73017;50.810;4.428;2024-02-14T04:21:29;100947.88;;;20.95;45.57
74573;BME280;73017;50.810;4.428;2024-02-14T04:23:56;100977.91;;;21.15;45.18
74573;BME280;73017;50.810;4.428;2024-02-14T04:26:21;100980.97;;;21.17;45.84
74573;BME280;73017;50.810;4.428;2024-02-14T04:28:47;100973.00;;;21.17;45.89
74573;BME280;73017;50.810;4.428;2024-02-14T04:31:12;100977.59;;;21.20;45.14
74573;BME280;73017;50.810;4.428;2024-02-14T04:33:38;100966.69;;;21.06;45.06
74573;BME280;73017;50.810;4.428;2024-02-14T04:36:03;100952.97;;;21.04;45.24
74573;BME280;73017;50.810;4.428;2024-02-14T04:38:30;100971.03;;;21.14;45.84
74573;BME280;73017;50.810;4.428;2024-02-14T04:40:56;100976.91;;;21.23;45.64
74573;BME280;73017;50.810;4.428;2024-02-14T04:43:25;100957.25;;;21.08;45.66
74573;BME280;73017;50.810;4.428;2024-02-14T04:45:52;100976.13;;;21.23;45.59
74573;BME280;73017;50.810;4.428;2024-02-14T04:48:17;100981.84;;;21.25;45.82
74573;BME280;73017;50.810;4.428;2024-02-14T04:50:43;100959.22;;;21.11;45.81
74573;BME280;73017;50.810;4.428;2024-02-14T04:53:08;100971.22;;;21.25;45.17
74573;BME280;73017;50.810;4.428;2024-02-14T04:55:34;100978.84;;;21.26;45.59
74573;BME280;73017;50.810;4.428;2024-02-14T04:58:00;100955.78;;;21.11;45.56
74573;BME280;73017;50.810;4.428;2024-02-14T05:00:26;100969.72;;;21.24;45.78
74573;BME280;73017;50.810;4.428;2024-02-14T05:02:53;100969.78;;;21.27;45.14
74573;BME280;73017;50.810;4.428;2024-02-14T05:05:18;100973.19;;;21.28;45.54
74573;BME280;73017;50.810;4.428;2024-02-14T05:07:46;100952.75;;;21.12;46.01
74573;BME280;73017;50.810;4.428;2024-02-14T05:10:11;100941.78;;;21.14;45.60
74573;BME280;73017;50.810;4.428;2024-02-14T05:12:37;100962.63;;;21.31;45.61
74573;BME280;73017;50.810;4.428;2024-02-14T05:15:03;100967.16;;;21.31;45.95
74573;BME280;73017;50.810;4.428;2024-02-14T05:17:29;100939.56;;;21.16;45.71
74573;BME280;73017;50.810;4.428;2024-02-14T05:19:55;100958.09;;;21.32;45.69
74573;BME280;73017;50.810;4.428;2024-02-14T05:22:22;100962.63;;;21.31;45.62
74573;BME280;73017;50.810;4.428;2024-02-14T05:24:48;100970.25;;;21.33;45.46
74573;BME280;73017;50.810;4.428;2024-02-14T05:27:13;100969.91;;;21.34;45.29
74573;BME280;73017;50.810;4.428;2024-02-14T05:29:39;100962.16;;;21.26;45.32
74573;BME280;73017;50.810;4.428;2024-02-14T05:32:04;100963.06;;;21.33;45.13
74573;BME280;73017;50.810;4.428;2024-02-14T05:34:30;100950.94;;;21.16;45.49
74573;BME280;73017;50.810;4.428;2024-02-14T05:36:55;100975.97;;;21.35;46.09
74573;BME280;73017;50.810;4.428;2024-02-14T05:39:21;100950.94;;;21.16;46.08
74573;BME280;73017;50.810;4.428;2024-02-14T05:41:47;100962.41;;;21.20;45.99
74573;BME280;73017;50.810;4.428;2024-02-14T05:44:14;100978.53;;;21.28;45.84
74573;BME280;73017;50.810;4.428;2024-02-14T05:46:40;100957.75;;;21.14;45.96
74573;BME280;73017;50.810;4.428;2024-02-14T05:49:06;100960.06;;;21.15;45.59
74573;BME280;73017;50.810;4.428;2024-02-14T05:51:32;100980.13;;;21.32;46.09
74573;BME280;73017;50.810;4.428;2024-02-14T05:53:57;100984.66;;;21.32;45.63
74573;BME280;73017;50.810;4.428;2024-02-14T05:56:23;100957.81;;;21.17;45.02
74573;BME280;73017;50.810;4.428;2024-02-14T05:58:48;100989.22;;;21.31;45.47
74573;BME280;73017;50.810;4.428;2024-02-14T06:01:14;100983.06;;;21.27;45.60
74573;BME280;73017;50.810;4.428;2024-02-14T06:03:41;100973.75;;;21.17;46.02
74573;BME280;73017;50.810;4.428;2024-02-14T06:06:06;100987.00;;;21.33;45.62
74573;BME280;73017;50.810;4.428;2024-02-14T06:08:32;100966.97;;;21.20;45.67
74573;BME280;73017;50.810;4.428;2024-02-14T06:10:57;100991.47;;;21.29;45.87
74573;BME280;73017;50.810;4.428;2024-02-14T06:13:23;100972.28;;;21.20;45.61
74573;BME280;73017;50.810;4.428;2024-02-14T06:15:48;100970.81;;;21.23;45.51
74573;BME280;73017;50.810;4.428;2024-02-14T06:18:14;100962.38;;;21.17;45.82
74573;BME280;73017;50.810;4.428;2024-02-14T06:20:39;100999.91;;;21.35;46.04
74573;BME280;73017;50.810;4.428;2024-02-14T06:23:05;100968.88;;;21.19;45.93
74573;BME280;73017;50.810;4.428;2024-02-14T06:25:33;100984.25;;;21.30;45.49
74573;BME280;73017;50.810;4.428;2024-02-14T06:27:58;100968.16;;;21.23;46.14
74573;BME280;73017;50.810;4.428;2024-02-14T06:30:24;100979.16;;;21.21;45.87
74573;BME280;73017;50.810;4.428;2024-02-14T06:32:49;101006.78;;;21.36;45.67
74573;BME280;73017;50.810;4.428;2024-02-14T06:35:15;100973.41;;;21.19;46.16
74573;BME280;73017;50.810;4.428;2024-02-14T06:37:44;100983.00;;;21.24;46.06
74573;BME280;73017;50.810;4.428;2024-02-14T06:40:10;100990.13;;;21.19;45.65
74573;BME280;73017;50.810;4.428;2024-02-14T06:42:35;100980.56;;;21.15;45.92
74573;BME280;73017;50.810;4.428;2024-02-14T06:45:01;101002.78;;;21.26;46.08
74573;BME280;73017;50.810;4.428;2024-02-14T06:47:26;101013.16;;;21.31;45.80
74573;BME280;73017;50.810;4.428;2024-02-14T06:49:55;100991.94;;;21.15;46.13
74573;BME280;73017;50.810;4.428;2024-02-14T06:52:21;100990.06;;;21.16;46.30
74573;BME280;73017;50.810;4.428;2024-02-14T06:54:47;101009.38;;;21.32;46.34
74573;BME280;73017;50.810;4.428;2024-02-14T06:57:13;101005.94;;;21.32;45.96
74573;BME280;73017;50.810;4.428;2024-02-14T06:59:39;100981.41;;;21.19;45.82
74573;BME280;73017;50.810;4.428;2024-02-14T07:02:05;100980.69;;;21.22;45.71
74573;BME280;73017;50.810;4.428;2024-02-14T07:04:31;101009.94;;;21.41;45.91
74573;BME280;73017;50.810;4.428;2024-02-14T07:06:56;101013.34;;;21.42;45.73
74573;BME280;73017;50.810;4.428;2024-02-14T07:09:22;101032.75;;;21.43;46.13
74573;BME280;73017;50.810;4.428;2024-02-14T07:11:47;101033.53;;;21.43;46.14
74573;BME280;73017;50.810;4.428;2024-02-14T07:14:13;101027.44;;;21.43;46.25
74573;BME280;73017;50.810;4.428;2024-02-14T07:16:38;101036.44;;;21.38;46.08
74573;BME280;73017;50.810;4.428;2024-02-14T07:19:04;101011.06;;;21.21;46.14
74573;BME280;73017;50.810;4.428;2024-02-14T07:21:29;101042.94;;;21.40;45.45
74573;BME280;73017;50.810;4.428;2024-02-14T07:23:55;101023.28;;;21.26;45.64
74573;BME280;73017;50.810;4.428;2024-02-14T07:26:20;101037.78;;;21.28;45.58
74573;BME280;73017;50.810;4.428;2024-02-14T07:28:46;101033.22;;;21.29;45.65
74573;BME280;73017;50.810;4.428;2024-02-14T07:31:11;101037.94;;;21.35;45.86
74573;BME280;73017;50.810;4.428;2024-02-14T07:33:37;101050.94;;;21.40;45.87
74573;BME280;73017;50.810;4.428;2024-02-14T07:36:02;101046.38;;;21.41;45.98
74573;BME280;73017;50.810;4.428;2024-02-14T07:38:28;101058.25;;;21.44;46.42
74573;BME280;73017;50.810;4.428;2024-02-14T07:40:53;101063.56;;;21.44;46.22
74573;BME280;73017;50.810;4.428;2024-02-14T07:43:19;101057.13;;;21.45;45.35
74573;BME280;73017;50.810;4.428;2024-02-14T07:45:44;101018.75;;;21.26;46.29
74573;BME280;73017;50.810;4.428;2024-02-14T07:48:10;101048.38;;;21.44;45.54
74573;BME280;73017;50.810;4.428;2024-02-14T07:50:36;101051.78;;;21.45;45.41
74573;BME280;73017;50.810;4.428;2024-02-14T07:53:02;101021.81;;;21.28;46.05
74573;BME280;73017;50.810;4.428;2024-02-14T07:55:28;101051.09;;;21.48;45.82
74573;BME280;73017;50.810;4.428;2024-02-14T07:57:53;101046.22;;;21.50;45.99
74573;BME280;73017;50.810;4.428;2024-02-14T08:00:19;101020.75;;;21.33;45.44
74573;BME280;73017;50.810;4.428;2024-02-14T08:02:48;101021.97;;;21.35;45.54
74573;BME280;73017;50.810;4.428;2024-02-14T08:05:14;101023.16;;;21.38;45.89
74573;BME280;73017;50.810;4.428;2024-02-14T08:07:39;101029.56;;;21.37;45.43
74573;BME280;73017;50.810;4.428;2024-02-14T08:10:05;101029.94;;;21.35;45.42
74573;BME280;73017;50.810;4.428;2024-02-14T08:12:30;101036.72;;;21.33;45.90
74573;BME280;73017;50.810;4.428;2024-02-14T08:14:56;101071.66;;;21.51;45.45
74573;BME280;73017;50.810;4.428;2024-02-14T08:17:21;101070.84;;;21.47;45.70
74573;BME280;73017;50.810;4.428;2024-02-14T08:19:47;101081.19;;;21.52;45.49
74573;BME280;73017;50.810;4.428;2024-02-14T08:22:13;101052.31;;;21.34;46.47
74573;BME280;73017;50.810;4.428;2024-02-14T08:24:39;101042.41;;;21.31;46.73
74573;BME280;73017;50.810;4.428;2024-02-14T08:27:04;101037.09;;;21.31;47.44
74573;BME280;73017;50.810;4.428;2024-02-14T08:29:32;101069.00;;;21.51;47.50
74573;BME280;73017;50.810;4.428;2024-02-14T08:31:58;101043.25;;;21.35;47.85
74573;BME280;73017;50.810;4.428;2024-02-14T08:34:23;101042.09;;;21.36;47.95
74573;BME280;73017;50.810;4.428;2024-02-14T08:36:49;101056.78;;;21.46;48.17
74573;BME280;73017;50.810;4.428;2024-02-14T08:39:14;101031.34;;;21.29;47.99
74573;BME280;73017;50.810;4.428;2024-02-14T08:41:40;101060.91;;;21.44;48.31
74573;BME280;73017;50.810;4.428;2024-02-14T08:44:06;101062.00;;;21.43;47.76
74573;BME280;73017;50.810;4.428;2024-02-14T08:46:33;101068.59;;;21.49;48.19
74573;BME280;73017;50.810;4.428;2024-02-14T08:49:00;101069.00;;;21.51;47.93
74573;BME280;73017;50.810;4.428;2024-02-14T08:51:30;101086.09;;;21.50;47.79
74573;BME280;73017;50.810;4.428;2024-02-14T08:53:56;101068.44;;;21.41;48.21
74573;BME280;73017;50.810;4.428;2024-02-14T08:56:25;101080.28;;;21.44;48.58
74573;BME280;73017;50.810;4.428;2024-02-14T08:58:50;101084.31;;;21.38;48.45
74573;BME280;73017;50.810;4.428;2024-02-14T09:01:15;101095.91;;;21.46;49.09
74573;BME280;73017;50.810;4.428;2024-02-14T09:03:45;101068.78;;;21.40;48.44
74573;BME280;73017;50.810;4.428;2024-02-14T09:06:14;101067.84;;;21.32;48.31
74573;BME280;73017;50.810;4.428;2024-02-14T09:08:40;101084.13;;;21.47;48.11
74573;BME280;73017;50.810;4.428;2024-02-14T09:11:06;101056.03;;;21.30;48.43
74573;BME280;73017;50.810;4.428;2024-02-14T09:13:31;101044.63;;;21.29;48.62
74573;BME280;73017;50.810;4.428;2024-02-14T09:15:57;101046.16;;;21.30;48.45
74573;BME280;73017;50.810;4.428;2024-02-14T09:18:22;101074.63;;;21.46;48.90
74573;BME280;73017;50.810;4.428;2024-02-14T09:20:49;101058.41;;;21.35;48.15
74573;BME280;73017;50.810;4.428;2024-02-14T09:23:16;101079.59;;;21.47;48.22
74573;BME280;73017;50.810;4.428;2024-02-14T09:25:46;101051.47;;;21.30;48.82
74573;BME280;73017;50.810;4.428;2024-02-14T09:28:12;101047.00;;;21.34;48.64
74573;BME280;73017;50.810;4.428;2024-02-14T09:30:39;101051.47;;;21.30;48.42
74573;BME280;73017;50.810;4.428;2024-02-14T09:33:05;101082.69;;;21.49;48.34
74573;BME280;73017;50.810;4.428;2024-02-14T09:35:30;101060.63;;;21.33;48.76
74573;BME280;73017;50.810;4.428;2024-02-14T09:37:56;101088.41;;;21.51;48.42
74573;BME280;73017;50.810;4.428;2024-02-14T09:40:21;101076.56;;;21.49;48.72
74573;BME280;73017;50.810;4.428;2024-02-14T09:42:54;101089.09;;;21.48;48.28
74573;BME280;73017;50.810;4.428;2024-02-14T09:45:24;101078.47;;;21.48;47.98
74573;BME280;73017;50.810;4.428;2024-02-14T09:47:51;101076.88;;;21.44;48.53
74573;BME280;73017;50.810;4.428;2024-02-14T09:50:19;101070.16;;;21.34;48.28
74573;BME280;73017;50.810;4.428;2024-02-14T09:52:47;101086.38;;;21.45;48.29
74573;BME280;73017;50.810;4.428;2024-02-14T09:55:17;101066.31;;;21.31;48.18
74573;BME280;73017;50.810;4.428;2024-02-14T09:57:43;101086.38;;;21.45;48.48
74573;BME280;73017;50.810;4.428;2024-02-14T10:00:10;101090.28;;;21.51;48.17
74573;BME280;73017;50.810;4.428;2024-02-14T10:02:36;101077.84;;;21.39;48.51
74573;BME280;73017;50.810;4.428;2024-02-14T10:05:01;101095.59;;;21.51;48.26
74573;BME280;73017;50.810;4.428;2024-02-14T10:07:27;101098.25;;;21.51;48.06
74573;BME280;73017;50.810;4.428;2024-02-14T10:09:53;101102.75;;;21.47;48.38
74573;BME280;73017;50.810;4.428;2024-02-14T10:12:22;101106.25;;;21.51;48.09
74573;BME280;73017;50.810;4.428;2024-02-14T10:14:47;101100.59;;;21.52;47.97
74573;BME280;73017;50.810;4.428;2024-02-14T10:17:19;101108.47;;;21.49;48.36
74573;BME280;73017;50.810;4.428;2024-02-14T10:20:03;101083.31;;;21.27;48.25
74573;BME280;73017;50.810;4.428;2024-02-14T10:22:37;101105.91;;;21.52;47.74
74573;BME280;73017;50.810;4.428;2024-02-14T10:25:04;101107.28;;;21.46;48.44
74573;BME280;73017;50.810;4.428;2024-02-14T10:27:36;101093.13;;;21.42;48.23
74573;BME280;73017;50.810;4.428;2024-02-14T10:30:05;101093.13;;;21.42;48.39
74573;BME280;73017;50.810;4.428;2024-02-14T10:32:30;101106.66;;;21.53;48.49
74573;BME280;73017;50.810;4.428;2024-02-14T10:34:56;101112.41;;;21.55;47.66
74573;BME280;73017;50.810;4.428;2024-02-14T10:37:24;101105.97;;;21.56;48.05
74573;BME280;73017;50.810;4.428;2024-02-14T10:39:50;101102.13;;;21.53;47.73
74573;BME280;73017;50.810;4.428;2024-02-14T10:42:18;101108.56;;;21.52;48.30
74573;BME280;73017;50.810;4.428;2024-02-14T10:44:44;101113.13;;;21.52;47.92
74573;BME280;73017;50.810;4.428;2024-02-14T10:47:18;101093.47;;;21.40;47.98
74573;BME280;73017;50.810;4.428;2024-02-14T10:49:48;101079.84;;;21.42;47.81
74573;BME280;73017;50.810;4.428;2024-02-14T10:52:16;101103.31;;;21.56;48.09
74573;BME280;73017;50.810;4.428;2024-02-14T10:54:43;101100.66;;;21.56;48.03
74573;BME280;73017;50.810;4.428;2024-02-14T10:57:15;101089.72;;;21.41;47.96
74573;BME280;73017;50.810;4.428;2024-02-14T10:59:45;101101.00;;;21.54;48.25
74573;BME280;73017;50.810;4.428;2024-02-14T11:02:12;101086.97;;;21.38;47.79
74573;BME280;73017;50.810;4.428;2024-02-14T11:04:38;101083.53;;;21.37;47.86
74573;BME280;73017;50.810;4.428;2024-02-14T11:07:09;101097.50;;;21.50;47.82
74573;BME280;73017;50.810;4.428;2024-02-14T11:09:40;101109.31;;;21.53;48.15
74573;BME280;73017;50.810;4.428;2024-02-14T11:12:10;101101.00;;;21.54;47.73
74573;BME280;73017;50.810;4.428;2024-02-14T11:14:35;101065.19;;;21.32;47.79
74573;BME280;73017;50.810;4.428;2024-02-14T11:17:09;101077.09;;;21.38;47.58
74573;BME280;73017;50.810;4.428;2024-02-14T11:19:35;101069.41;;;21.33;47.77
74573;BME280;73017;50.810;4.428;2024-02-14T11:22:13;101091.41;;;21.50;47.93
74573;BME280;73017;50.810;4.428;2024-02-14T11:24:45;101072.19;;;21.40;48.09
74573;BME280;73017;50.810;4.428;2024-02-14T11:27:11;101089.94;;;21.52;48.04
74573;BME280;73017;50.810;4.428;2024-02-14T11:29:41;101095.59;;;21.51;47.72
74573;BME280;73017;50.810;4.428;2024-02-14T11:32:17;101101.34;;;21.53;48.18
74573;BME280;73017;50.810;4.428;2024-02-14T11:34:44;101101.75;;;21.55;48.10
74573;BME280;73017;50.810;4.428;2024-02-14T11:37:20;101082.50;;;21.42;47.99
74573;BME280;73017;50.810;4.428;2024-02-14T11:39:46;101099.91;;;21.55;47.44
74573;BME280;73017;50.810;4.428;2024-02-14T11:42:12;101079.41;;;21.40;47.58
74573;BME280;73017;50.810;4.428;2024-02-14T11:44:40;101073.34;;;21.39;47.90
74573;BME280;73017;50.810;4.428;2024-02-14T11:47:09;101093.78;;;21.55;48.17
74573;BME280;73017;50.810;4.428;2024-02-14T11:49:36;101071.00;;;21.38;47.64
74573;BME280;73017;50.810;4.428;2024-02-14T11:52:02;101099.53;;;21.57;48.12
74573;BME280;73017;50.810;4.428;2024-02-14T11:54:29;101077.50;;;21.56;47.49
74573;BME280;73017;50.810;4.428;2024-02-14T11:56:55;101057.00;;;21.41;47.98
74573;BME280;73017;50.810;4.428;2024-02-14T11:59:21;101076.72;;;21.56;47.89
74573;BME280;73017;50.810;4.428;2024-02-14T12:01:48;101083.16;;;21.55;47.40
74573;BME280;73017;50.810;4.428;2024-02-14T12:04:17;101060.47;;;21.41;47.48
74573;BME280;73017;50.810;4.428;2024-02-14T12:06:44;101090.38;;;21.54;47.53
74573;BME280;73017;50.810;4.428;2024-02-14T12:09:11;101086.59;;;21.55;47.58
74573;BME280;73017;50.810;4.428;2024-02-14T12:11:39;101062.69;;;21.39;47.52
74573;BME280;73017;50.810;4.428;2024-02-14T12:14:10;101060.47;;;21.41;47.22
74573;BME280;73017;50.810;4.428;2024-02-14T12:16:36;101047.84;;;21.38;47.53
74573;BME280;73017;50.810;4.428;2024-02-14T12:19:14;101071.75;;;21.54;47.75
74573;BME280;73017;50.810;4.428;2024-02-14T12:21:42;101063.34;;;21.52;47.70
74573;BME280;73017;50.810;4.428;2024-02-14T12:24:09;101069.16;;;21.58;47.76
74573;BME280;73017;50.810;4.428;2024-02-14T12:26:36;101080.16;;;21.56;47.92
74573;BME280;73017;50.810;4.428;2024-02-14T12:29:03;101083.16;;;21.55;47.52
74573;BME280;73017;50.810;4.428;2024-02-14T12:31:32;101077.50;;;21.56;47.93
74573;BME280;73017;50.810;4.428;2024-02-14T12:33:58;101080.91;;;21.57;47.25
74573;BME280;73017;50.810;4.428;2024-02-14T12:36:31;101091.56;;;21.57;47.31
74573;BME280;73017;50.810;4.428;2024-02-14T12:38:59;101057.94;;;21.29;47.59
74573;BME280;73017;50.810;4.428;2024-02-14T12:41:24;101064.56;;;21.39;47.60
74573;BME280;73017;50.810;4.428;2024-02-14T12:43:52;101081.63;;;21.54;47.76
74573;BME280;73017;50.810;4.428;2024-02-14T12:46:18;101091.56;;;21.57;47.95